CCA512 RJFK-ZSPD
Flight info
| Callsign | CCA512 |
|---|---|
| Flight time | N/A |
| Altitude | 34000 |
| Route | SASIK G339 TAIME V40 FUE Y60 POTET A593 LAMEN/K0861F340 A593 AKARA/K0861S1040 A593 DUMET DUM93A |
| Aircraft | A320/M-SDE3FGHIRWY/LB1 |
Departure
| Time | 2026-05-08 13:22 |
|---|---|
| Airport | Kagoshima Airport (RJFK) |
Arrival
| Time | N/A |
|---|---|
| Airport | Shanghai Pudong International Airport (ZSPD) |
| Time | Latitude | Longitude | Altitude | Speed | Heading |
|---|---|---|---|---|---|
| 2026-05-08 12:41 | 31.80428 | 130.71461 | 907 ft | 0 kts | 240° |
| 2026-05-08 13:02 | 31.80432 | 130.71470 | 906 ft | 4 kts | 239° |
| 2026-05-08 13:02 | 31.80446 | 130.71497 | 912 ft | 4 kts | 237° |
| 2026-05-08 13:02 | 31.80461 | 130.71524 | 913 ft | 4 kts | 234° |
| 2026-05-08 13:02 | 31.80478 | 130.71549 | 908 ft | 4 kts | 230° |
| 2026-05-08 13:03 | 31.80496 | 130.71572 | 914 ft | 4 kts | 219° |
| 2026-05-08 13:03 | 31.80518 | 130.71587 | 910 ft | 4 kts | 181° |
| 2026-05-08 13:03 | 31.80528 | 130.71586 | 911 ft | 0 kts | 150° |
| 2026-05-08 13:07 | 31.80504 | 130.71602 | 910 ft | 13 kts | 150° |
| 2026-05-08 13:07 | 31.80411 | 130.71665 | 905 ft | 15 kts | 150° |
| 2026-05-08 13:07 | 31.80320 | 130.71726 | 903 ft | 15 kts | 150° |
| 2026-05-08 13:07 | 31.80233 | 130.71785 | 902 ft | 14 kts | 150° |
| 2026-05-08 13:08 | 31.80146 | 130.71844 | 900 ft | 14 kts | 150° |
| 2026-05-08 13:08 | 31.80062 | 130.71900 | 898 ft | 14 kts | 150° |
| 2026-05-08 13:08 | 31.79981 | 130.71955 | 896 ft | 13 kts | 150° |
| 2026-05-08 13:08 | 31.79900 | 130.72009 | 895 ft | 13 kts | 150° |
| 2026-05-08 13:09 | 31.79821 | 130.72063 | 893 ft | 13 kts | 150° |
| 2026-05-08 13:09 | 31.79744 | 130.72115 | 891 ft | 13 kts | 150° |
| 2026-05-08 13:09 | 31.79669 | 130.72166 | 890 ft | 12 kts | 150° |
| 2026-05-08 13:09 | 31.79595 | 130.72215 | 888 ft | 12 kts | 150° |
| 2026-05-08 13:10 | 31.79525 | 130.72263 | 887 ft | 11 kts | 149° |
| 2026-05-08 13:10 | 31.79458 | 130.72310 | 886 ft | 11 kts | 149° |
| 2026-05-08 13:10 | 31.79394 | 130.72354 | 885 ft | 10 kts | 149° |
| 2026-05-08 13:10 | 31.79332 | 130.72395 | 884 ft | 10 kts | 150° |
| 2026-05-08 13:11 | 31.79273 | 130.72435 | 883 ft | 9 kts | 150° |
| 2026-05-08 13:11 | 31.79217 | 130.72472 | 882 ft | 9 kts | 150° |
| 2026-05-08 13:11 | 31.79205 | 130.72480 | 881 ft | 0 kts | 150° |
| 2026-05-08 13:14 | 31.79196 | 130.72486 | 881 ft | 3 kts | 150° |
| 2026-05-08 13:15 | 31.79172 | 130.72503 | 881 ft | 4 kts | 150° |
| 2026-05-08 13:15 | 31.79144 | 130.72522 | 880 ft | 5 kts | 146° |
| 2026-05-08 13:15 | 31.79123 | 130.72551 | 880 ft | 5 kts | 119° |
| 2026-05-08 13:15 | 31.79117 | 130.72588 | 879 ft | 4 kts | 88° |
| 2026-05-08 13:16 | 31.79126 | 130.72614 | 879 ft | 0 kts | 60° |
| 2026-05-08 13:20 | 31.79138 | 130.72638 | 879 ft | 7 kts | 60° |
| 2026-05-08 13:21 | 31.79166 | 130.72682 | 878 ft | 12 kts | 38° |
| 2026-05-08 13:21 | 31.79263 | 130.72664 | 880 ft | 10 kts | 330° |
| 2026-05-08 13:21 | 31.79286 | 130.72649 | 881 ft | 0 kts | 330° |
| 2026-05-08 13:21 | 31.79324 | 130.72623 | 883 ft | 29 kts | 330° |
| 2026-05-08 13:22 | 31.79710 | 130.72362 | 889 ft | 95 kts | 330° |
| 2026-05-08 13:22 | 31.80436 | 130.71868 | 911 ft | 144 kts | 328° |
| 2026-05-08 13:22 | 31.81327 | 130.71256 | 1417 ft | 149 kts | 330° |
| 2026-05-08 13:22 | 31.82217 | 130.70668 | 2116 ft | 149 kts | 334° |
| 2026-05-08 13:23 | 31.83175 | 130.70279 | 2857 ft | 141 kts | 345° |
| 2026-05-08 13:23 | 31.84094 | 130.69979 | 3576 ft | 132 kts | 345° |
| 2026-05-08 13:23 | 31.84940 | 130.69701 | 4308 ft | 122 kts | 344° |
| 2026-05-08 13:23 | 31.85828 | 130.69409 | 4768 ft | 140 kts | 344° |
| 2026-05-08 13:24 | 31.86853 | 130.69071 | 4929 ft | 165 kts | 344° |
| 2026-05-08 13:24 | 31.88036 | 130.68680 | 5135 ft | 188 kts | 344° |
| 2026-05-08 13:24 | 31.89377 | 130.68233 | 5318 ft | 213 kts | 343° |
| 2026-05-08 13:24 | 31.90884 | 130.67732 | 5647 ft | 237 kts | 343° |
| 2026-05-08 13:25 | 31.92526 | 130.67190 | 6210 ft | 251 kts | 343° |
| 2026-05-08 13:25 | 31.94230 | 130.66628 | 6932 ft | 257 kts | 342° |
| 2026-05-08 13:25 | 31.95964 | 130.66046 | 7711 ft | 261 kts | 340° |
| 2026-05-08 13:25 | 31.97709 | 130.65380 | 8481 ft | 266 kts | 338° |
| 2026-05-08 13:26 | 31.99466 | 130.64658 | 9266 ft | 270 kts | 336° |
| 2026-05-08 13:26 | 32.01249 | 130.63909 | 10035 ft | 274 kts | 336° |
| 2026-05-08 13:26 | 32.03060 | 130.63149 | 10731 ft | 278 kts | 335° |
| 2026-05-08 13:26 | 32.04900 | 130.62383 | 11431 ft | 282 kts | 335° |
| 2026-05-08 13:27 | 32.06767 | 130.61611 | 12131 ft | 286 kts | 335° |
| 2026-05-08 13:27 | 32.08663 | 130.60833 | 12828 ft | 291 kts | 335° |
| 2026-05-08 13:27 | 32.10586 | 130.60047 | 13528 ft | 295 kts | 335° |
| 2026-05-08 13:27 | 32.12537 | 130.59248 | 14225 ft | 297 kts | 334° |
| 2026-05-08 13:28 | 32.14498 | 130.58447 | 14775 ft | 299 kts | 335° |
| 2026-05-08 13:28 | 32.16477 | 130.57640 | 15323 ft | 302 kts | 334° |
| 2026-05-08 13:28 | 32.18469 | 130.56826 | 15978 ft | 304 kts | 334° |
| 2026-05-08 13:28 | 32.20476 | 130.56002 | 16606 ft | 307 kts | 334° |
| 2026-05-08 13:29 | 32.22499 | 130.55171 | 17185 ft | 310 kts | 334° |
| 2026-05-08 13:29 | 32.24547 | 130.54331 | 17801 ft | 313 kts | 334° |
| 2026-05-08 13:29 | 32.26615 | 130.53481 | 18052 ft | 315 kts | 334° |
| 2026-05-08 13:29 | 32.28687 | 130.52630 | 18103 ft | 315 kts | 334° |
| 2026-05-08 13:30 | 32.30835 | 130.52029 | 18109 ft | 324 kts | 348° |
| 2026-05-08 13:30 | 32.33145 | 130.51845 | 18177 ft | 343 kts | 349° |
| 2026-05-08 13:30 | 32.35555 | 130.51679 | 18330 ft | 360 kts | 350° |
| 2026-05-08 13:30 | 32.38114 | 130.51519 | 18454 ft | 376 kts | 350° |
| 2026-05-08 13:31 | 32.40785 | 130.51352 | 18568 ft | 391 kts | 349° |
| 2026-05-08 13:31 | 32.43547 | 130.51136 | 18683 ft | 404 kts | 349° |
| 2026-05-08 13:31 | 32.46392 | 130.50876 | 18798 ft | 416 kts | 348° |
| 2026-05-08 13:31 | 32.49318 | 130.50584 | 18913 ft | 428 kts | 348° |
| 2026-05-08 13:32 | 32.52319 | 130.50280 | 19032 ft | 438 kts | 348° |
| 2026-05-08 13:32 | 32.55389 | 130.49976 | 19148 ft | 447 kts | 349° |
| 2026-05-08 13:32 | 32.58518 | 130.49673 | 19295 ft | 455 kts | 348° |
| 2026-05-08 13:32 | 32.61692 | 130.49375 | 19520 ft | 459 kts | 348° |
| 2026-05-08 13:33 | 32.64888 | 130.49081 | 19808 ft | 462 kts | 348° |
| 2026-05-08 13:33 | 32.68100 | 130.48789 | 20074 ft | 464 kts | 348° |
| 2026-05-08 13:33 | 32.71333 | 130.48496 | 20329 ft | 467 kts | 348° |
| 2026-05-08 13:33 | 32.74542 | 130.48010 | 20569 ft | 462 kts | 340° |
| 2026-05-08 13:34 | 32.77575 | 130.46879 | 20815 ft | 453 kts | 329° |
| 2026-05-08 13:34 | 32.80326 | 130.45148 | 21199 ft | 442 kts | 320° |
| 2026-05-08 13:34 | 32.82709 | 130.42915 | 21534 ft | 432 kts | 309° |
| 2026-05-08 13:34 | 32.84646 | 130.40228 | 21791 ft | 425 kts | 299° |
| 2026-05-08 13:35 | 32.86065 | 130.37176 | 22046 ft | 420 kts | 289° |
| 2026-05-08 13:35 | 32.87012 | 130.33905 | 22315 ft | 418 kts | 282° |
| 2026-05-08 13:35 | 32.87596 | 130.30577 | 22583 ft | 416 kts | 276° |
| 2026-05-08 13:35 | 32.87891 | 130.27155 | 22844 ft | 416 kts | 273° |
| 2026-05-08 13:36 | 32.88152 | 130.23720 | 23130 ft | 417 kts | 273° |
| 2026-05-08 13:36 | 32.88415 | 130.20284 | 23361 ft | 418 kts | 273° |
| 2026-05-08 13:36 | 32.88677 | 130.16832 | 23573 ft | 419 kts | 273° |
| 2026-05-08 13:36 | 32.88934 | 130.13403 | 23833 ft | 419 kts | 273° |
| 2026-05-08 13:37 | 32.89190 | 130.09957 | 24108 ft | 418 kts | 272° |
| 2026-05-08 13:37 | 32.89446 | 130.06512 | 24376 ft | 418 kts | 272° |
| 2026-05-08 13:37 | 32.89699 | 130.03073 | 24672 ft | 417 kts | 272° |
| 2026-05-08 13:37 | 32.89950 | 129.99646 | 25020 ft | 415 kts | 273° |
| 2026-05-08 13:38 | 32.90199 | 129.96228 | 25353 ft | 414 kts | 272° |
| 2026-05-08 13:38 | 32.90267 | 129.92817 | 25661 ft | 411 kts | 266° |
| 2026-05-08 13:38 | 32.89959 | 129.89447 | 25967 ft | 410 kts | 260° |
| 2026-05-08 13:38 | 32.89318 | 129.86144 | 26282 ft | 409 kts | 256° |
| 2026-05-08 13:39 | 32.88616 | 129.82867 | 26592 ft | 408 kts | 256° |
| 2026-05-08 13:39 | 32.87918 | 129.79599 | 26943 ft | 407 kts | 256° |
| 2026-05-08 13:39 | 32.87222 | 129.76342 | 27320 ft | 405 kts | 256° |
| 2026-05-08 13:39 | 32.86530 | 129.73100 | 27707 ft | 404 kts | 256° |
| 2026-05-08 13:40 | 32.85839 | 129.69862 | 27944 ft | 405 kts | 256° |
| 2026-05-08 13:40 | 32.85144 | 129.66612 | 28134 ft | 406 kts | 256° |
| 2026-05-08 13:40 | 32.84447 | 129.63356 | 28440 ft | 406 kts | 256° |
| 2026-05-08 13:40 | 32.83749 | 129.60104 | 28777 ft | 405 kts | 256° |
| 2026-05-08 13:41 | 32.83052 | 129.56859 | 29137 ft | 404 kts | 256° |
| 2026-05-08 13:41 | 32.82358 | 129.53626 | 29511 ft | 403 kts | 256° |
| 2026-05-08 13:41 | 32.81668 | 129.50404 | 29869 ft | 402 kts | 256° |
| 2026-05-08 13:41 | 32.80979 | 129.47186 | 30086 ft | 402 kts | 256° |
| 2026-05-08 13:42 | 32.79592 | 129.40764 | 30114 ft | 400 kts | 256° |
| 2026-05-08 13:42 | 32.78197 | 129.34352 | 30128 ft | 402 kts | 256° |
| 2026-05-08 13:43 | 32.76798 | 129.27926 | 30122 ft | 402 kts | 256° |
| 2026-05-08 13:43 | 32.75408 | 129.21542 | 30122 ft | 402 kts | 256° |
| 2026-05-08 13:44 | 32.74008 | 129.15120 | 30124 ft | 402 kts | 256° |
| 2026-05-08 13:44 | 32.72602 | 129.08700 | 30127 ft | 401 kts | 256° |
| 2026-05-08 13:45 | 32.71190 | 129.02296 | 30130 ft | 401 kts | 256° |
| 2026-05-08 13:45 | 32.69771 | 128.95856 | 30124 ft | 405 kts | 256° |
| 2026-05-08 13:46 | 32.68331 | 128.89341 | 30134 ft | 406 kts | 256° |
| 2026-05-08 13:46 | 32.66904 | 128.82878 | 30133 ft | 404 kts | 256° |
| 2026-05-08 13:47 | 32.65517 | 128.76421 | 30137 ft | 404 kts | 256° |
| 2026-05-08 13:47 | 32.64186 | 128.69996 | 30138 ft | 404 kts | 257° |
| 2026-05-08 13:48 | 32.62838 | 128.63527 | 30139 ft | 405 kts | 257° |
| 2026-05-08 13:48 | 32.61469 | 128.57049 | 30141 ft | 405 kts | 256° |
| 2026-05-08 13:49 | 32.60093 | 128.50576 | 30154 ft | 405 kts | 256° |
| 2026-05-08 13:49 | 32.58719 | 128.44103 | 30142 ft | 405 kts | 256° |
| 2026-05-08 13:50 | 32.57341 | 128.37631 | 30150 ft | 405 kts | 256° |
| 2026-05-08 13:50 | 32.55949 | 128.31164 | 30148 ft | 405 kts | 256° |
| 2026-05-08 13:51 | 32.54556 | 128.24678 | 30151 ft | 409 kts | 256° |
| 2026-05-08 13:51 | 32.53150 | 128.18138 | 30164 ft | 410 kts | 257° |
| 2026-05-08 13:52 | 32.51743 | 128.11607 | 30152 ft | 409 kts | 257° |
| 2026-05-08 13:52 | 32.50344 | 128.05129 | 30156 ft | 409 kts | 257° |
| 2026-05-08 13:53 | 32.48936 | 127.98612 | 30164 ft | 409 kts | 256° |
| 2026-05-08 13:53 | 32.47520 | 127.92101 | 30154 ft | 407 kts | 256° |
| 2026-05-08 13:54 | 32.46106 | 127.85608 | 30168 ft | 407 kts | 256° |
| 2026-05-08 13:54 | 32.44690 | 127.79125 | 30169 ft | 407 kts | 256° |
| 2026-05-08 13:55 | 32.43269 | 127.72644 | 30166 ft | 407 kts | 256° |
| 2026-05-08 13:56 | 32.41142 | 127.62945 | 30167 ft | 406 kts | 256° |
| 2026-05-08 13:56 | 32.39721 | 127.56485 | 30166 ft | 405 kts | 256° |
| 2026-05-08 13:57 | 32.38296 | 127.50027 | 30173 ft | 407 kts | 256° |
| 2026-05-08 13:57 | 32.36855 | 127.43540 | 30171 ft | 407 kts | 256° |
| 2026-05-08 13:58 | 32.35413 | 127.37069 | 30168 ft | 407 kts | 256° |
| 2026-05-08 13:58 | 32.33966 | 127.30601 | 30178 ft | 407 kts | 256° |
| 2026-05-08 13:59 | 32.32520 | 127.24132 | 30171 ft | 407 kts | 256° |
| 2026-05-08 13:59 | 32.31077 | 127.17664 | 30175 ft | 407 kts | 256° |
| 2026-05-08 14:00 | 32.29627 | 127.11182 | 30176 ft | 409 kts | 256° |
| 2026-05-08 14:00 | 32.28160 | 127.04686 | 30179 ft | 410 kts | 256° |
| 2026-05-08 14:01 | 32.26708 | 126.98171 | 30191 ft | 410 kts | 256° |
| 2026-05-08 14:01 | 32.25297 | 126.91699 | 30178 ft | 409 kts | 257° |
| 2026-05-08 14:02 | 32.23872 | 126.85188 | 30178 ft | 410 kts | 256° |
| 2026-05-08 14:02 | 32.22434 | 126.78680 | 30180 ft | 410 kts | 256° |
| 2026-05-08 14:03 | 32.20984 | 126.72164 | 30184 ft | 411 kts | 256° |
| 2026-05-08 14:03 | 32.19532 | 126.65629 | 30182 ft | 411 kts | 256° |
| 2026-05-08 14:04 | 32.18100 | 126.59093 | 30185 ft | 411 kts | 257° |
| 2026-05-08 14:04 | 32.16702 | 126.52546 | 30188 ft | 411 kts | 257° |
| 2026-05-08 14:05 | 32.15298 | 126.46004 | 30186 ft | 411 kts | 257° |
| 2026-05-08 14:05 | 32.13879 | 126.39476 | 30190 ft | 411 kts | 257° |
| 2026-05-08 14:06 | 32.12444 | 126.32942 | 30192 ft | 413 kts | 257° |
| 2026-05-08 14:06 | 32.11006 | 126.26383 | 30187 ft | 413 kts | 257° |
| 2026-05-08 14:07 | 32.09579 | 126.19825 | 30192 ft | 412 kts | 257° |
| 2026-05-08 14:07 | 32.08391 | 126.14384 | 30191 ft | 412 kts | 257° |
| 2026-05-08 14:08 | 32.06708 | 126.06734 | 30191 ft | 412 kts | 257° |
| 2026-05-08 14:08 | 32.05291 | 126.00234 | 30190 ft | 412 kts | 257° |
| 2026-05-08 14:09 | 32.03890 | 125.93686 | 30185 ft | 412 kts | 257° |
| 2026-05-08 14:09 | 32.02715 | 125.88189 | 30190 ft | 413 kts | 257° |
| 2026-05-08 14:10 | 32.01070 | 125.80569 | 30190 ft | 413 kts | 257° |
| 2026-05-08 14:10 | 31.99640 | 125.74023 | 30193 ft | 413 kts | 257° |
| 2026-05-08 14:11 | 31.98436 | 125.68589 | 30190 ft | 412 kts | 257° |
| 2026-05-08 14:11 | 31.96978 | 125.62055 | 30193 ft | 412 kts | 257° |
| 2026-05-08 14:12 | 31.95522 | 125.55521 | 30193 ft | 412 kts | 257° |
| 2026-05-08 14:12 | 31.94066 | 125.48999 | 30199 ft | 412 kts | 257° |
| 2026-05-08 14:13 | 31.92612 | 125.42484 | 30195 ft | 411 kts | 257° |
| 2026-05-08 14:13 | 31.91146 | 125.35980 | 30195 ft | 411 kts | 257° |
| 2026-05-08 14:14 | 31.89677 | 125.29480 | 30199 ft | 411 kts | 257° |
| 2026-05-08 14:14 | 31.88211 | 125.22981 | 30201 ft | 411 kts | 257° |
| 2026-05-08 14:15 | 31.87480 | 125.19739 | 30198 ft | 410 kts | 257° |